sensor_id;sensor_type;location;lat;lon;timestamp;P1;durP1;ratioP1;P2;durP2;ratioP2
77978;SDS011;67169;50.268;8.694;2023-04-25T00:02:19;9.32;;;5.28;;
77978;SDS011;67169;50.268;8.694;2023-04-25T00:04:46;7.60;;;5.18;;
77978;SDS011;67169;50.268;8.694;2023-04-25T00:07:13;8.45;;;4.70;;
77978;SDS011;67169;50.268;8.694;2023-04-25T00:09:41;9.50;;;4.43;;
77978;SDS011;67169;50.268;8.694;2023-04-25T00:14:34;9.95;;;4.57;;
77978;SDS011;67169;50.268;8.694;2023-04-25T00:17:01;8.43;;;4.60;;
77978;SDS011;67169;50.268;8.694;2023-04-25T00:19:29;7.78;;;4.13;;
77978;SDS011;67169;50.268;8.694;2023-04-25T00:21:55;6.82;;;4.45;;
77978;SDS011;67169;50.268;8.694;2023-04-25T00:24:22;9.40;;;5.25;;
77978;SDS011;67169;50.268;8.694;2023-04-25T00:26:50;7.72;;;5.20;;
77978;SDS011;67169;50.268;8.694;2023-04-25T00:34:09;10.02;;;5.65;;
77978;SDS011;67169;50.268;8.694;2023-04-25T00:36:36;9.65;;;5.60;;
77978;SDS011;67169;50.268;8.694;2023-04-25T00:39:03;8.70;;;5.53;;
77978;SDS011;67169;50.268;8.694;2023-04-25T00:41:30;10.73;;;5.95;;
77978;SDS011;67169;50.268;8.694;2023-04-25T00:43:57;10.40;;;5.50;;
77978;SDS011;67169;50.268;8.694;2023-04-25T00:46:25;11.10;;;6.03;;
77978;SDS011;67169;50.268;8.694;2023-04-25T00:48:52;8.48;;;5.38;;
77978;SDS011;67169;50.268;8.694;2023-04-25T00:51:19;9.07;;;5.38;;
77978;SDS011;67169;50.268;8.694;2023-04-25T00:56:14;7.30;;;4.82;;
77978;SDS011;67169;50.268;8.694;2023-04-25T00:58:42;9.82;;;5.70;;
77978;SDS011;67169;50.268;8.694;2023-04-25T01:01:10;12.13;;;6.40;;
77978;SDS011;67169;50.268;8.694;2023-04-25T01:03:38;12.15;;;5.88;;
77978;SDS011;67169;50.268;8.694;2023-04-25T01:06:06;10.10;;;6.07;;
77978;SDS011;67169;50.268;8.694;2023-04-25T01:08:34;9.95;;;6.53;;
77978;SDS011;67169;50.268;8.694;2023-04-25T01:11:01;8.32;;;5.97;;
77978;SDS011;67169;50.268;8.694;2023-04-25T01:13:27;11.65;;;7.03;;
77978;SDS011;67169;50.268;8.694;2023-04-25T01:15:54;13.35;;;6.93;;
77978;SDS011;67169;50.268;8.694;2023-04-25T01:18:22;11.05;;;6.35;;
77978;SDS011;67169;50.268;8.694;2023-04-25T01:20:49;12.52;;;5.55;;
77978;SDS011;67169;50.268;8.694;2023-04-25T01:25:45;10.95;;;5.40;;
77978;SDS011;67169;50.268;8.694;2023-04-25T01:28:13;7.45;;;4.93;;
77978;SDS011;67169;50.268;8.694;2023-04-25T01:30:40;13.68;;;5.43;;
77978;SDS011;67169;50.268;8.694;2023-04-25T01:33:08;10.25;;;6.25;;
77978;SDS011;67169;50.268;8.694;2023-04-25T01:35:35;8.65;;;4.85;;
77978;SDS011;67169;50.268;8.694;2023-04-25T01:38:01;8.13;;;5.18;;
77978;SDS011;67169;50.268;8.694;2023-04-25T01:40:29;8.52;;;4.50;;
77978;SDS011;67169;50.268;8.694;2023-04-25T01:42:57;11.52;;;5.90;;
77978;SDS011;67169;50.268;8.694;2023-04-25T01:45:24;9.57;;;5.32;;
77978;SDS011;67169;50.268;8.694;2023-04-25T01:47:50;10.73;;;5.80;;
77978;SDS011;67169;50.268;8.694;2023-04-25T01:50:17;7.93;;;5.45;;
77978;SDS011;67169;50.268;8.694;2023-04-25T01:52:45;9.45;;;5.53;;
77978;SDS011;67169;50.268;8.694;2023-04-25T01:55:11;8.75;;;5.22;;
77978;SDS011;67169;50.268;8.694;2023-04-25T01:57:39;7.13;;;5.00;;
77978;SDS011;67169;50.268;8.694;2023-04-25T02:00:06;9.32;;;4.55;;
77978;SDS011;67169;50.268;8.694;2023-04-25T02:02:35;9.80;;;5.28;;
77978;SDS011;67169;50.268;8.694;2023-04-25T02:05:01;8.10;;;5.28;;
77978;SDS011;67169;50.268;8.694;2023-04-25T02:07:28;9.32;;;5.10;;
77978;SDS011;67169;50.268;8.694;2023-04-25T02:09:55;10.95;;;5.03;;
77978;SDS011;67169;50.268;8.694;2023-04-25T02:12:21;11.98;;;4.82;;
77978;SDS011;67169;50.268;8.694;2023-04-25T02:14:49;7.80;;;4.80;;
77978;SDS011;67169;50.268;8.694;2023-04-25T02:17:16;10.10;;;4.70;;
77978;SDS011;67169;50.268;8.694;2023-04-25T02:19:42;10.75;;;5.28;;
77978;SDS011;67169;50.268;8.694;2023-04-25T02:22:09;10.32;;;5.53;;
77978;SDS011;67169;50.268;8.694;2023-04-25T02:24:36;11.13;;;5.45;;
77978;SDS011;67169;50.268;8.694;2023-04-25T02:27:03;10.93;;;4.68;;
77978;SDS011;67169;50.268;8.694;2023-04-25T02:29:29;10.48;;;4.72;;
77978;SDS011;67169;50.268;8.694;2023-04-25T02:31:57;12.25;;;4.90;;
77978;SDS011;67169;50.268;8.694;2023-04-25T02:34:24;10.52;;;5.10;;
77978;SDS011;67169;50.268;8.694;2023-04-25T02:36:51;8.57;;;5.20;;
77978;SDS011;67169;50.268;8.694;2023-04-25T02:39:17;9.48;;;4.60;;
77978;SDS011;67169;50.268;8.694;2023-04-25T02:41:44;9.68;;;4.97;;
77978;SDS011;67169;50.268;8.694;2023-04-25T02:44:10;8.75;;;4.85;;
77978;SDS011;67169;50.268;8.694;2023-04-25T02:46:37;11.35;;;5.50;;
77978;SDS011;67169;50.268;8.694;2023-04-25T02:49:05;8.82;;;5.50;;
77978;SDS011;67169;50.268;8.694;2023-04-25T02:51:32;9.20;;;4.95;;
77978;SDS011;67169;50.268;8.694;2023-04-25T02:53:58;10.52;;;6.10;;
77978;SDS011;67169;50.268;8.694;2023-04-25T02:56:25;10.85;;;5.82;;
77978;SDS011;67169;50.268;8.694;2023-04-25T02:58:52;12.63;;;6.10;;
77978;SDS011;67169;50.268;8.694;2023-04-25T03:01:18;12.55;;;5.65;;
77978;SDS011;67169;50.268;8.694;2023-04-25T03:03:45;11.23;;;4.80;;
77978;SDS011;67169;50.268;8.694;2023-04-25T03:06:13;13.93;;;5.82;;
77978;SDS011;67169;50.268;8.694;2023-04-25T03:08:40;12.45;;;5.22;;
77978;SDS011;67169;50.268;8.694;2023-04-25T03:11:07;9.00;;;5.25;;
77978;SDS011;67169;50.268;8.694;2023-04-25T03:13:33;11.60;;;4.55;;
77978;SDS011;67169;50.268;8.694;2023-04-25T03:16:00;9.02;;;4.47;;
77978;SDS011;67169;50.268;8.694;2023-04-25T03:18:26;9.55;;;6.03;;
77978;SDS011;67169;50.268;8.694;2023-04-25T03:20:53;10.18;;;4.88;;
77978;SDS011;67169;50.268;8.694;2023-04-25T03:23:21;9.15;;;4.47;;
77978;SDS011;67169;50.268;8.694;2023-04-25T03:25:47;11.57;;;4.90;;
77978;SDS011;67169;50.268;8.694;2023-04-25T03:28:14;7.78;;;4.53;;
77978;SDS011;67169;50.268;8.694;2023-04-25T03:30:40;8.70;;;4.80;;
77978;SDS011;67169;50.268;8.694;2023-04-25T03:33:07;10.63;;;4.40;;
77978;SDS011;67169;50.268;8.694;2023-04-25T03:35:33;11.15;;;4.85;;
77978;SDS011;67169;50.268;8.694;2023-04-25T03:38:00;13.60;;;5.18;;
77978;SDS011;67169;50.268;8.694;2023-04-25T03:40:28;11.18;;;4.78;;
77978;SDS011;67169;50.268;8.694;2023-04-25T03:42:54;10.50;;;4.55;;
77978;SDS011;67169;50.268;8.694;2023-04-25T03:45:21;11.93;;;4.05;;
77978;SDS011;67169;50.268;8.694;2023-04-25T03:47:48;9.63;;;4.68;;
77978;SDS011;67169;50.268;8.694;2023-04-25T03:50:14;10.23;;;5.32;;
77978;SDS011;67169;50.268;8.694;2023-04-25T03:52:41;11.95;;;5.20;;
77978;SDS011;67169;50.268;8.694;2023-04-25T03:55:08;8.85;;;5.38;;
77978;SDS011;67169;50.268;8.694;2023-04-25T03:57:37;14.60;;;5.20;;
77978;SDS011;67169;50.268;8.694;2023-04-25T04:00:03;10.77;;;5.13;;
77978;SDS011;67169;50.268;8.694;2023-04-25T04:02:31;12.82;;;5.40;;
77978;SDS011;67169;50.268;8.694;2023-04-25T04:04:58;12.75;;;5.65;;
77978;SDS011;67169;50.268;8.694;2023-04-25T04:07:24;12.43;;;5.30;;
77978;SDS011;67169;50.268;8.694;2023-04-25T04:09:51;10.20;;;5.40;;
77978;SDS011;67169;50.268;8.694;2023-04-25T04:12:17;13.02;;;5.47;;
77978;SDS011;67169;50.268;8.694;2023-04-25T04:14:45;9.52;;;4.43;;
77978;SDS011;67169;50.268;8.694;2023-04-25T04:17:12;8.75;;;4.78;;
77978;SDS011;67169;50.268;8.694;2023-04-25T04:19:38;14.88;;;5.88;;
77978;SDS011;67169;50.268;8.694;2023-04-25T04:22:05;10.30;;;5.40;;
77978;SDS011;67169;50.268;8.694;2023-04-25T04:24:31;15.57;;;5.82;;
77978;SDS011;67169;50.268;8.694;2023-04-25T04:26:58;11.02;;;5.75;;
77978;SDS011;67169;50.268;8.694;2023-04-25T04:29:25;12.35;;;6.18;;
77978;SDS011;67169;50.268;8.694;2023-04-25T04:31:53;9.68;;;5.53;;
77978;SDS011;67169;50.268;8.694;2023-04-25T04:34:20;8.40;;;3.72;;
77978;SDS011;67169;50.268;8.694;2023-04-25T04:36:47;10.90;;;5.05;;
77978;SDS011;67169;50.268;8.694;2023-04-25T04:39:13;8.65;;;4.60;;
77978;SDS011;67169;50.268;8.694;2023-04-25T04:41:40;7.43;;;4.95;;
77978;SDS011;67169;50.268;8.694;2023-04-25T04:44:07;8.98;;;4.97;;
77978;SDS011;67169;50.268;8.694;2023-04-25T04:46:35;12.40;;;5.60;;
77978;SDS011;67169;50.268;8.694;2023-04-25T04:49:07;15.60;;;5.55;;
77978;SDS011;67169;50.268;8.694;2023-04-25T04:54:00;10.93;;;5.25;;
77978;SDS011;67169;50.268;8.694;2023-04-25T04:56:27;7.45;;;4.00;;
77978;SDS011;67169;50.268;8.694;2023-04-25T04:58:54;14.13;;;4.53;;
77978;SDS011;67169;50.268;8.694;2023-04-25T05:01:21;10.55;;;4.93;;
77978;SDS011;67169;50.268;8.694;2023-04-25T05:03:48;11.43;;;4.78;;
77978;SDS011;67169;50.268;8.694;2023-04-25T05:06:16;13.95;;;4.93;;
77978;SDS011;67169;50.268;8.694;2023-04-25T05:08:42;13.05;;;5.25;;
77978;SDS011;67169;50.268;8.694;2023-04-25T05:11:09;8.68;;;4.43;;
77978;SDS011;67169;50.268;8.694;2023-04-25T05:13:36;9.88;;;4.97;;
77978;SDS011;67169;50.268;8.694;2023-04-25T05:16:02;8.38;;;4.60;;
77978;SDS011;67169;50.268;8.694;2023-04-25T05:18:29;10.73;;;5.40;;
77978;SDS011;67169;50.268;8.694;2023-04-25T05:20:56;10.38;;;4.25;;
77978;SDS011;67169;50.268;8.694;2023-04-25T05:23:24;9.60;;;4.47;;
77978;SDS011;67169;50.268;8.694;2023-04-25T05:25:52;10.48;;;3.72;;
77978;SDS011;67169;50.268;8.694;2023-04-25T05:28:19;8.77;;;4.15;;
77978;SDS011;67169;50.268;8.694;2023-04-25T05:30:46;10.50;;;4.30;;
77978;SDS011;67169;50.268;8.694;2023-04-25T05:33:12;10.45;;;4.40;;
77978;SDS011;67169;50.268;8.694;2023-04-25T05:35:41;8.25;;;3.90;;
77978;SDS011;67169;50.268;8.694;2023-04-25T05:38:11;7.53;;;3.85;;
77978;SDS011;67169;50.268;8.694;2023-04-25T05:40:39;5.65;;;3.85;;
77978;SDS011;67169;50.268;8.694;2023-04-25T05:43:05;6.90;;;3.83;;
77978;SDS011;67169;50.268;8.694;2023-04-25T05:45:32;10.68;;;3.70;;
77978;SDS011;67169;50.268;8.694;2023-04-25T05:47:58;7.90;;;3.60;;
77978;SDS011;67169;50.268;8.694;2023-04-25T05:50:25;8.30;;;3.03;;
77978;SDS011;67169;50.268;8.694;2023-04-25T05:52:52;5.35;;;3.40;;
77978;SDS011;67169;50.268;8.694;2023-04-25T05:55:18;4.80;;;3.40;;
77978;SDS011;67169;50.268;8.694;2023-04-25T05:57:46;6.15;;;3.58;;
77978;SDS011;67169;50.268;8.694;2023-04-25T06:00:13;10.48;;;3.47;;
77978;SDS011;67169;50.268;8.694;2023-04-25T06:02:41;6.65;;;2.80;;
77978;SDS011;67169;50.268;8.694;2023-04-25T06:05:08;7.32;;;2.75;;
77978;SDS011;67169;50.268;8.694;2023-04-25T06:07:34;6.50;;;2.42;;
77978;SDS011;67169;50.268;8.694;2023-04-25T06:10:01;3.80;;;2.40;;
77978;SDS011;67169;50.268;8.694;2023-04-25T06:12:31;3.72;;;2.25;;
77978;SDS011;67169;50.268;8.694;2023-04-25T06:14:59;3.78;;;2.63;;
77978;SDS011;67169;50.268;8.694;2023-04-25T06:19:52;3.95;;;2.78;;
77978;SDS011;67169;50.268;8.694;2023-04-25T06:22:18;7.88;;;3.17;;
77978;SDS011;67169;50.268;8.694;2023-04-25T06:24:45;7.85;;;3.05;;
77978;SDS011;67169;50.268;8.694;2023-04-25T06:27:12;5.03;;;2.85;;
77978;SDS011;67169;50.268;8.694;2023-04-25T06:29:38;4.22;;;2.45;;
77978;SDS011;67169;50.268;8.694;2023-04-25T06:32:06;3.28;;;2.22;;
77978;SDS011;67169;50.268;8.694;2023-04-25T06:34:33;7.20;;;2.92;;
77978;SDS011;67169;50.268;8.694;2023-04-25T06:36:59;4.78;;;2.40;;
77978;SDS011;67169;50.268;8.694;2023-04-25T06:39:26;7.65;;;3.72;;
77978;SDS011;67169;50.268;8.694;2023-04-25T06:41:52;7.10;;;2.92;;
77978;SDS011;67169;50.268;8.694;2023-04-25T06:44:19;6.35;;;2.17;;
77978;SDS011;67169;50.268;8.694;2023-04-25T06:46:48;5.65;;;2.60;;
77978;SDS011;67169;50.268;8.694;2023-04-25T06:49:16;7.60;;;2.83;;
77978;SDS011;67169;50.268;8.694;2023-04-25T06:51:42;6.22;;;2.42;;
77978;SDS011;67169;50.268;8.694;2023-04-25T06:54:09;5.20;;;2.13;;
77978;SDS011;67169;50.268;8.694;2023-04-25T06:56:35;6.07;;;3.17;;
77978;SDS011;67169;50.268;8.694;2023-04-25T06:59:02;5.82;;;2.90;;
77978;SDS011;67169;50.268;8.694;2023-04-25T07:01:29;7.18;;;2.40;;
77978;SDS011;67169;50.268;8.694;2023-04-25T07:03:55;7.43;;;2.50;;
77978;SDS011;67169;50.268;8.694;2023-04-25T07:06:23;6.25;;;3.15;;
77978;SDS011;67169;50.268;8.694;2023-04-25T07:08:50;4.72;;;2.20;;
77978;SDS011;67169;50.268;8.694;2023-04-25T07:11:17;7.50;;;2.70;;
77978;SDS011;67169;50.268;8.694;2023-04-25T07:13:43;4.82;;;2.30;;
77978;SDS011;67169;50.268;8.694;2023-04-25T07:16:10;3.40;;;1.77;;
77978;SDS011;67169;50.268;8.694;2023-04-25T07:18:37;3.40;;;2.15;;
77978;SDS011;67169;50.268;8.694;2023-04-25T07:21:03;2.80;;;2.13;;
77978;SDS011;67169;50.268;8.694;2023-04-25T07:23:31;6.05;;;2.17;;
77978;SDS011;67169;50.268;8.694;2023-04-25T07:35:45;4.07;;;2.03;;
77978;SDS011;67169;50.268;8.694;2023-04-25T07:38:11;2.85;;;1.92;;
77978;SDS011;67169;50.268;8.694;2023-04-25T07:40:39;4.18;;;1.88;;
77978;SDS011;67169;50.268;8.694;2023-04-25T07:47:59;2.60;;;1.60;;
77978;SDS011;67169;50.268;8.694;2023-04-25T07:50:25;2.55;;;1.60;;
77978;SDS011;67169;50.268;8.694;2023-04-25T07:52:52;4.88;;;2.33;;
77978;SDS011;67169;50.268;8.694;2023-04-25T07:55:18;7.68;;;2.00;;
77978;SDS011;67169;50.268;8.694;2023-04-25T07:57:46;4.00;;;2.20;;
77978;SDS011;67169;50.268;8.694;2023-04-25T08:00:13;5.53;;;2.58;;
77978;SDS011;67169;50.268;8.694;2023-04-25T08:02:40;6.95;;;2.83;;
77978;SDS011;67169;50.268;8.694;2023-04-25T08:05:07;6.32;;;2.70;;
77978;SDS011;67169;50.268;8.694;2023-04-25T08:07:36;5.28;;;2.50;;
77978;SDS011;67169;50.268;8.694;2023-04-25T08:10:03;9.30;;;2.67;;
77978;SDS011;67169;50.268;8.694;2023-04-25T08:12:31;4.90;;;3.25;;
77978;SDS011;67169;50.268;8.694;2023-04-25T08:14:59;6.15;;;2.63;;
77978;SDS011;67169;50.268;8.694;2023-04-25T08:19:52;4.90;;;2.35;;
77978;SDS011;67169;50.268;8.694;2023-04-25T08:22:18;4.45;;;3.20;;
77978;SDS011;67169;50.268;8.694;2023-04-25T08:24:45;4.65;;;2.20;;
77978;SDS011;67169;50.268;8.694;2023-04-25T08:27:11;5.88;;;2.88;;
77978;SDS011;67169;50.268;8.694;2023-04-25T08:29:38;5.90;;;2.88;;
77978;SDS011;67169;50.268;8.694;2023-04-25T08:32:06;4.72;;;2.97;;
77978;SDS011;67169;50.268;8.694;2023-04-25T08:36:59;4.78;;;1.92;;
77978;SDS011;67169;50.268;8.694;2023-04-25T08:39:35;4.75;;;2.70;;
77978;SDS011;67169;50.268;8.694;2023-04-25T08:42:01;5.10;;;2.67;;
77978;SDS011;67169;50.268;8.694;2023-04-25T08:44:32;3.40;;;2.22;;
77978;SDS011;67169;50.268;8.694;2023-04-25T08:46:59;4.13;;;2.70;;
77978;SDS011;67169;50.268;8.694;2023-04-25T08:51:55;4.45;;;2.40;;
77978;SDS011;67169;50.268;8.694;2023-04-25T08:54:25;5.82;;;2.75;;
77978;SDS011;67169;50.268;8.694;2023-04-25T08:56:53;3.28;;;2.50;;
77978;SDS011;67169;50.268;8.694;2023-04-25T08:59:21;4.57;;;2.60;;
77978;SDS011;67169;50.268;8.694;2023-04-25T09:01:48;4.43;;;2.55;;
77978;SDS011;67169;50.268;8.694;2023-04-25T09:04:16;5.97;;;3.13;;
77978;SDS011;67169;50.268;8.694;2023-04-25T09:06:45;4.97;;;2.38;;
77978;SDS011;67169;50.268;8.694;2023-04-25T09:09:12;4.80;;;2.63;;
77978;SDS011;67169;50.268;8.694;2023-04-25T09:11:39;7.18;;;2.63;;
77978;SDS011;67169;50.268;8.694;2023-04-25T09:14:10;5.05;;;2.67;;
77978;SDS011;67169;50.268;8.694;2023-04-25T09:16:59;3.13;;;2.72;;
77978;SDS011;67169;50.268;8.694;2023-04-25T09:19:28;5.38;;;2.88;;
77978;SDS011;67169;50.268;8.694;2023-04-25T09:21:57;5.30;;;3.25;;
77978;SDS011;67169;50.268;8.694;2023-04-25T09:24:31;5.13;;;2.78;;
77978;SDS011;67169;50.268;8.694;2023-04-25T09:26:59;3.65;;;2.45;;
77978;SDS011;67169;50.268;8.694;2023-04-25T09:29:29;2.70;;;2.33;;
77978;SDS011;67169;50.268;8.694;2023-04-25T09:32:17;3.97;;;2.33;;
77978;SDS011;67169;50.268;8.694;2023-04-25T09:34:46;7.03;;;3.28;;
77978;SDS011;67169;50.268;8.694;2023-04-25T09:37:18;3.25;;;2.92;;
77978;SDS011;67169;50.268;8.694;2023-04-25T09:39:46;5.68;;;2.88;;
77978;SDS011;67169;50.268;8.694;2023-04-25T09:42:13;7.35;;;2.75;;
77978;SDS011;67169;50.268;8.694;2023-04-25T09:44:42;6.60;;;2.70;;
77978;SDS011;67169;50.268;8.694;2023-04-25T09:47:10;7.68;;;3.10;;
77978;SDS011;67169;50.268;8.694;2023-04-25T09:52:05;5.78;;;2.65;;
77978;SDS011;67169;50.268;8.694;2023-04-25T09:54:33;6.18;;;3.00;;
77978;SDS011;67169;50.268;8.694;2023-04-25T09:57:01;6.18;;;2.70;;
77978;SDS011;67169;50.268;8.694;2023-04-25T09:59:33;6.15;;;2.88;;
77978;SDS011;67169;50.268;8.694;2023-04-25T10:02:05;4.80;;;3.42;;
77978;SDS011;67169;50.268;8.694;2023-04-25T10:04:34;3.60;;;2.85;;
77978;SDS011;67169;50.268;8.694;2023-04-25T10:07:01;4.55;;;2.75;;
77978;SDS011;67169;50.268;8.694;2023-04-25T10:09:29;3.63;;;2.58;;
77978;SDS011;67169;50.268;8.694;2023-04-25T10:12:00;6.05;;;2.25;;
77978;SDS011;67169;50.268;8.694;2023-04-25T10:14:26;2.85;;;1.80;;
77978;SDS011;67169;50.268;8.694;2023-04-25T10:16:54;4.95;;;2.10;;
77978;SDS011;67169;50.268;8.694;2023-04-25T10:19:21;3.38;;;1.90;;
77978;SDS011;67169;50.268;8.694;2023-04-25T10:21:49;3.38;;;1.95;;
77978;SDS011;67169;50.268;8.694;2023-04-25T10:24:18;4.30;;;1.58;;
77978;SDS011;67169;50.268;8.694;2023-04-25T10:26:46;2.45;;;1.73;;
77978;SDS011;67169;50.268;8.694;2023-04-25T10:29:15;2.22;;;1.58;;
77978;SDS011;67169;50.268;8.694;2023-04-25T10:31:48;2.90;;;1.73;;
77978;SDS011;67169;50.268;8.694;2023-04-25T10:34:15;7.30;;;2.35;;
77978;SDS011;67169;50.268;8.694;2023-04-25T10:36:42;4.07;;;1.88;;
77978;SDS011;67169;50.268;8.694;2023-04-25T10:39:09;3.58;;;2.05;;
77978;SDS011;67169;50.268;8.694;2023-04-25T10:41:45;3.45;;;2.10;;
77978;SDS011;67169;50.268;8.694;2023-04-25T10:44:14;8.18;;;1.63;;
77978;SDS011;67169;50.268;8.694;2023-04-25T10:46:41;3.75;;;1.40;;
77978;SDS011;67169;50.268;8.694;2023-04-25T10:49:10;3.03;;;1.50;;
77978;SDS011;67169;50.268;8.694;2023-04-25T10:51:37;2.40;;;1.35;;
77978;SDS011;67169;50.268;8.694;2023-04-25T10:54:05;3.97;;;2.08;;
77978;SDS011;67169;50.268;8.694;2023-04-25T10:56:33;3.45;;;1.30;;
77978;SDS011;67169;50.268;8.694;2023-04-25T10:59:05;1.45;;;1.13;;
77978;SDS011;67169;50.268;8.694;2023-04-25T11:01:37;4.05;;;1.80;;
77978;SDS011;67169;50.268;8.694;2023-04-25T11:04:05;2.90;;;1.60;;
77978;SDS011;67169;50.268;8.694;2023-04-25T11:06:46;3.90;;;1.63;;
77978;SDS011;67169;50.268;8.694;2023-04-25T11:09:24;3.58;;;1.58;;
77978;SDS011;67169;50.268;8.694;2023-04-25T11:11:53;4.28;;;1.95;;
77978;SDS011;67169;50.268;8.694;2023-04-25T11:14:20;2.53;;;1.25;;
77978;SDS011;67169;50.268;8.694;2023-04-25T11:16:48;4.60;;;1.52;;
77978;SDS011;67169;50.268;8.694;2023-04-25T11:19:19;3.13;;;1.40;;
77978;SDS011;67169;50.268;8.694;2023-04-25T11:21:45;5.45;;;1.83;;
77978;SDS011;67169;50.268;8.694;2023-04-25T11:24:12;2.80;;;1.60;;
77978;SDS011;67169;50.268;8.694;2023-04-25T11:26:40;4.55;;;1.15;;
77978;SDS011;67169;50.268;8.694;2023-04-25T11:29:07;2.35;;;1.30;;
77978;SDS011;67169;50.268;8.694;2023-04-25T11:31:34;2.22;;;1.33;;
77978;SDS011;67169;50.268;8.694;2023-04-25T11:34:02;2.38;;;1.20;;
77978;SDS011;67169;50.268;8.694;2023-04-25T11:36:50;3.92;;;1.27;;
77978;SDS011;67169;50.268;8.694;2023-04-25T11:39:17;1.55;;;1.10;;
77978;SDS011;67169;50.268;8.694;2023-04-25T11:41:44;5.20;;;1.40;;
77978;SDS011;67169;50.268;8.694;2023-04-25T11:44:11;5.00;;;1.73;;
77978;SDS011;67169;50.268;8.694;2023-04-25T11:46:38;8.13;;;1.70;;
77978;SDS011;67169;50.268;8.694;2023-04-25T11:49:06;3.85;;;1.48;;
77978;SDS011;67169;50.268;8.694;2023-04-25T11:54:04;2.38;;;1.10;;
77978;SDS011;67169;50.268;8.694;2023-04-25T11:56:31;3.78;;;1.70;;
77978;SDS011;67169;50.268;8.694;2023-04-25T11:58:57;3.55;;;1.40;;
77978;SDS011;67169;50.268;8.694;2023-04-25T12:01:28;1.50;;;1.27;;
77978;SDS011;67169;50.268;8.694;2023-04-25T12:03:56;3.83;;;2.22;;
77978;SDS011;67169;50.268;8.694;2023-04-25T12:06:27;2.58;;;1.63;;
77978;SDS011;67169;50.268;8.694;2023-04-25T12:09:00;2.97;;;1.65;;
77978;SDS011;67169;50.268;8.694;2023-04-25T12:11:29;7.50;;;1.30;;
77978;SDS011;67169;50.268;8.694;2023-04-25T12:14:01;5.80;;;3.10;;
77978;SDS011;67169;50.268;8.694;2023-04-25T12:16:28;7.38;;;2.58;;
77978;SDS011;67169;50.268;8.694;2023-04-25T12:18:55;3.20;;;1.45;;
77978;SDS011;67169;50.268;8.694;2023-04-25T12:21:22;7.22;;;1.83;;
77978;SDS011;67169;50.268;8.694;2023-04-25T12:23:49;5.55;;;1.88;;
77978;SDS011;67169;50.268;8.694;2023-04-25T12:26:19;3.85;;;1.52;;
77978;SDS011;67169;50.268;8.694;2023-04-25T12:28:47;3.63;;;1.77;;
77978;SDS011;67169;50.268;8.694;2023-04-25T12:31:13;5.20;;;1.60;;
77978;SDS011;67169;50.268;8.694;2023-04-25T12:33:41;4.47;;;1.42;;
77978;SDS011;67169;50.268;8.694;2023-04-25T12:36:08;2.95;;;1.42;;
77978;SDS011;67169;50.268;8.694;2023-04-25T12:38:38;5.45;;;1.73;;
77978;SDS011;67169;50.268;8.694;2023-04-25T12:41:07;6.18;;;1.42;;
77978;SDS011;67169;50.268;8.694;2023-04-25T12:43:35;3.45;;;1.52;;
77978;SDS011;67169;50.268;8.694;2023-04-25T12:46:01;5.10;;;1.60;;
77978;SDS011;67169;50.268;8.694;2023-04-25T12:48:28;4.72;;;1.90;;
77978;SDS011;67169;50.268;8.694;2023-04-25T12:50:54;2.72;;;1.33;;
77978;SDS011;67169;50.268;8.694;2023-04-25T12:53:21;5.57;;;1.55;;
77978;SDS011;67169;50.268;8.694;2023-04-25T12:55:50;4.93;;;1.60;;
77978;SDS011;67169;50.268;8.694;2023-04-25T12:58:18;4.43;;;1.50;;
77978;SDS011;67169;50.268;8.694;2023-04-25T13:00:45;4.57;;;1.55;;
77978;SDS011;67169;50.268;8.694;2023-04-25T13:03:12;7.28;;;2.10;;
77978;SDS011;67169;50.268;8.694;2023-04-25T13:05:39;5.38;;;1.58;;
77978;SDS011;67169;50.268;8.694;2023-04-25T13:08:06;4.38;;;2.00;;
77978;SDS011;67169;50.268;8.694;2023-04-25T13:10:33;4.00;;;1.30;;
77978;SDS011;67169;50.268;8.694;2023-04-25T13:13:01;2.97;;;1.70;;
77978;SDS011;67169;50.268;8.694;2023-04-25T13:15:29;2.65;;;1.80;;
77978;SDS011;67169;50.268;8.694;2023-04-25T13:17:55;5.13;;;1.70;;
77978;SDS011;67169;50.268;8.694;2023-04-25T13:20:22;3.50;;;1.42;;
77978;SDS011;67169;50.268;8.694;2023-04-25T13:22:48;3.20;;;1.70;;
77978;SDS011;67169;50.268;8.694;2023-04-25T13:25:15;3.17;;;1.42;;
77978;SDS011;67169;50.268;8.694;2023-04-25T13:27:42;4.10;;;1.80;;
77978;SDS011;67169;50.268;8.694;2023-04-25T13:30:09;4.05;;;1.90;;
77978;SDS011;67169;50.268;8.694;2023-04-25T13:32:37;3.33;;;1.80;;
77978;SDS011;67169;50.268;8.694;2023-04-25T13:35:05;4.18;;;2.00;;
77978;SDS011;67169;50.268;8.694;2023-04-25T13:37:33;4.72;;;2.30;;
77978;SDS011;67169;50.268;8.694;2023-04-25T13:40:00;4.65;;;1.90;;
77978;SDS011;67169;50.268;8.694;2023-04-25T13:42:29;6.43;;;2.67;;
77978;SDS011;67169;50.268;8.694;2023-04-25T13:44:56;5.22;;;1.85;;
77978;SDS011;67169;50.268;8.694;2023-04-25T13:47:23;2.60;;;1.30;;
77978;SDS011;67169;50.268;8.694;2023-04-25T13:49:51;7.90;;;2.00;;
77978;SDS011;67169;50.268;8.694;2023-04-25T13:52:18;3.70;;;1.60;;
77978;SDS011;67169;50.268;8.694;2023-04-25T13:54:45;3.10;;;1.60;;
77978;SDS011;67169;50.268;8.694;2023-04-25T13:57:11;4.78;;;1.77;;
77978;SDS011;67169;50.268;8.694;2023-04-25T13:59:38;2.33;;;1.27;;
77978;SDS011;67169;50.268;8.694;2023-04-25T14:02:05;4.30;;;1.80;;
77978;SDS011;67169;50.268;8.694;2023-04-25T14:04:32;3.92;;;1.58;;
77978;SDS011;67169;50.268;8.694;2023-04-25T14:07:00;3.85;;;1.85;;
77978;SDS011;67169;50.268;8.694;2023-04-25T14:09:27;2.85;;;1.73;;
77978;SDS011;67169;50.268;8.694;2023-04-25T14:11:54;4.22;;;1.40;;
77978;SDS011;67169;50.268;8.694;2023-04-25T14:14:21;2.38;;;1.52;;
77978;SDS011;67169;50.268;8.694;2023-04-25T14:16:49;4.18;;;1.63;;
77978;SDS011;67169;50.268;8.694;2023-04-25T14:19:16;2.75;;;1.30;;
77978;SDS011;67169;50.268;8.694;2023-04-25T14:21:43;2.92;;;1.60;;
77978;SDS011;67169;50.268;8.694;2023-04-25T14:26:39;6.85;;;1.80;;
77978;SDS011;67169;50.268;8.694;2023-04-25T14:29:07;2.60;;;1.20;;
77978;SDS011;67169;50.268;8.694;2023-04-25T14:31:36;3.10;;;1.58;;
77978;SDS011;67169;50.268;8.694;2023-04-25T14:36:31;4.55;;;1.30;;
77978;SDS011;67169;50.268;8.694;2023-04-25T14:38:58;5.03;;;1.60;;
77978;SDS011;67169;50.268;8.694;2023-04-25T14:41:27;2.15;;;1.20;;
77978;SDS011;67169;50.268;8.694;2023-04-25T14:43:53;2.60;;;1.60;;
77978;SDS011;67169;50.268;8.694;2023-04-25T14:46:21;4.00;;;1.40;;
77978;SDS011;67169;50.268;8.694;2023-04-25T14:48:49;7.00;;;1.80;;
77978;SDS011;67169;50.268;8.694;2023-04-25T14:51:15;2.78;;;1.33;;
77978;SDS011;67169;50.268;8.694;2023-04-25T14:53:42;4.57;;;1.30;;
77978;SDS011;67169;50.268;8.694;2023-04-25T14:56:09;3.88;;;1.50;;
77978;SDS011;67169;50.268;8.694;2023-04-25T14:58:37;1.83;;;1.00;;
77978;SDS011;67169;50.268;8.694;2023-04-25T15:01:03;5.55;;;1.23;;
77978;SDS011;67169;50.268;8.694;2023-04-25T15:03:31;3.20;;;1.40;;
77978;SDS011;67169;50.268;8.694;2023-04-25T15:05:58;3.03;;;1.17;;
77978;SDS011;67169;50.268;8.694;2023-04-25T15:08:25;4.65;;;1.60;;
77978;SDS011;67169;50.268;8.694;2023-04-25T15:10:52;4.32;;;1.42;;
77978;SDS011;67169;50.268;8.694;2023-04-25T15:13:18;2.45;;;1.25;;
77978;SDS011;67169;50.268;8.694;2023-04-25T15:15:46;5.85;;;1.33;;
77978;SDS011;67169;50.268;8.694;2023-04-25T15:18:16;3.58;;;1.30;;
77978;SDS011;67169;50.268;8.694;2023-04-25T15:20:44;1.92;;;1.05;;
77978;SDS011;67169;50.268;8.694;2023-04-25T15:26:13;4.78;;;1.25;;
77978;SDS011;67169;50.268;8.694;2023-04-25T15:28:40;3.28;;;1.40;;
77978;SDS011;67169;50.268;8.694;2023-04-25T15:31:09;2.03;;;0.95;;
77978;SDS011;67169;50.268;8.694;2023-04-25T15:33:35;1.42;;;1.10;;
77978;SDS011;67169;50.268;8.694;2023-04-25T15:36:02;2.28;;;1.08;;
77978;SDS011;67169;50.268;8.694;2023-04-25T15:38:29;2.67;;;1.02;;
77978;SDS011;67169;50.268;8.694;2023-04-25T15:40:55;4.43;;;1.30;;